createdAt,value
2022-11-15T00:01:31.626Z,957.90
2022-11-15T00:04:17.402Z,962.30
2022-11-15T00:07:03.239Z,961.42
2022-11-15T00:09:49.164Z,961.72
2022-11-15T00:12:35.117Z,963.53
2022-11-15T00:15:20.590Z,964.85
2022-11-15T00:18:13.291Z,966.17
2022-11-15T00:21:05.168Z,965.80
2022-11-15T00:23:50.807Z,967.03
2022-11-15T00:26:36.451Z,961.03
2022-11-15T00:29:22.497Z,959.42
2022-11-15T00:32:07.898Z,961.47
2022-11-15T00:34:53.650Z,962.00
2022-11-15T00:37:39.610Z,965.13
2022-11-15T00:40:25.395Z,964.00
2022-11-15T00:43:11.300Z,965.70
2022-11-15T00:45:56.771Z,956.70
2022-11-15T00:48:42.171Z,956.67
2022-11-15T00:51:27.642Z,955.58
2022-11-15T00:54:13.305Z,958.22
2022-11-15T00:56:58.887Z,958.15
2022-11-15T00:59:44.675Z,961.55
2022-11-15T01:02:30.103Z,962.53
2022-11-15T01:05:15.499Z,961.10
2022-11-15T01:08:01.241Z,960.20
2022-11-15T01:10:48.326Z,960.00
2022-11-15T01:13:35.156Z,957.55
2022-11-15T01:16:21.017Z,957.97
2022-11-15T01:19:06.922Z,956.33
2022-11-15T01:21:53.015Z,961.67
2022-11-15T01:24:38.930Z,959.67
2022-11-15T01:27:24.791Z,956.05
2022-11-15T01:30:10.810Z,957.67
2022-11-15T01:32:56.340Z,955.80
2022-11-15T01:35:41.698Z,958.95
2022-11-15T01:38:27.193Z,960.20
2022-11-15T01:41:21.481Z,964.70
2022-11-15T01:44:31.995Z,961.83
2022-11-15T01:47:33.033Z,962.35
2022-11-15T01:50:23.044Z,961.67
2022-11-15T01:53:09.023Z,961.67
2022-11-15T01:55:55.578Z,965.03
2022-11-15T01:58:42.043Z,964.58
2022-11-15T02:01:28.217Z,963.83
2022-11-15T02:04:17.794Z,963.30
2022-11-15T02:07:08.089Z,964.87
2022-11-15T02:09:54.258Z,964.13
2022-11-15T02:12:40.986Z,967.00
2022-11-15T02:15:33.591Z,966.03
2022-11-15T02:18:32.052Z,965.45
2022-11-15T02:21:23.288Z,965.28
2022-11-15T02:24:50.309Z,965.45
2022-11-15T02:28:11.291Z,966.20
2022-11-15T02:31:14.565Z,963.28
2022-11-15T02:34:24.058Z,961.22
2022-11-15T02:37:17.449Z,959.58
2022-11-15T02:40:17.911Z,957.75
2022-11-15T02:43:37.001Z,956.90
2022-11-15T02:47:02.050Z,952.58
2022-11-15T02:49:51.099Z,955.13
2022-11-15T02:52:36.594Z,953.80
2022-11-15T02:55:28.544Z,958.10
2022-11-15T02:58:17.381Z,958.93
2022-11-15T03:01:36.890Z,956.30
2022-11-15T03:04:34.687Z,955.17
2022-11-15T03:07:33.806Z,956.80
2022-11-15T03:10:27.364Z,954.67
2022-11-15T03:13:35.369Z,954.67
2022-11-15T03:16:59.434Z,948.88
2022-11-15T03:19:48.128Z,952.25
2022-11-15T03:22:43.386Z,953.47
2022-11-15T03:25:30.172Z,951.13
2022-11-15T03:28:28.995Z,952.92
2022-11-15T03:31:35.139Z,953.70
2022-11-15T03:34:45.069Z,954.10
2022-11-15T03:38:05.762Z,958.45
2022-11-15T03:40:59.885Z,955.10
2022-11-15T03:44:07.659Z,956.28
2022-11-15T03:47:03.952Z,955.07
2022-11-15T03:49:58.050Z,955.27
2022-11-15T03:52:44.080Z,957.47
2022-11-15T03:55:29.478Z,956.57
2022-11-15T03:58:15.486Z,956.58
2022-11-15T04:01:01.603Z,955.30
2022-11-15T04:03:46.760Z,955.23
2022-11-15T04:06:32.617Z,962.75
2022-11-15T04:09:18.149Z,963.35
2022-11-15T04:12:03.976Z,961.80
2022-11-15T04:15:08.065Z,965.50
2022-11-15T04:17:55.931Z,962.97
2022-11-15T04:21:02.156Z,964.53
2022-11-15T04:23:53.961Z,962.23
2022-11-15T04:26:39.550Z,974.08
2022-11-15T04:29:37.691Z,970.67
2022-11-15T04:32:22.911Z,957.70
2022-11-15T04:35:08.643Z,971.13
2022-11-15T04:37:54.438Z,963.53
2022-11-15T04:40:39.773Z,964.03
2022-11-15T04:43:26.820Z,959.40
2022-11-15T04:46:12.252Z,960.35
2022-11-15T04:48:59.227Z,962.40
2022-11-15T04:51:45.180Z,958.13
2022-11-15T04:54:30.626Z,963.60
2022-11-15T04:57:16.269Z,962.08
2022-11-15T05:00:03.009Z,963.58
2022-11-15T05:03:06.585Z,964.70
2022-11-15T05:05:52.129Z,962.00
2022-11-15T05:08:37.710Z,959.77
2022-11-15T05:11:23.919Z,961.97
2022-11-15T05:14:09.663Z,962.28
2022-11-15T05:16:55.404Z,960.90
2022-11-15T05:19:41.063Z,959.83
2022-11-15T05:22:27.534Z,960.78
2022-11-15T05:25:13.127Z,961.58
2022-11-15T05:27:59.147Z,956.42
2022-11-15T05:30:44.558Z,963.03
2022-11-15T05:33:31.181Z,958.00
2022-11-15T05:36:32.165Z,960.58
2022-11-15T05:39:17.879Z,959.78
2022-11-15T05:42:15.046Z,956.60
2022-11-15T05:45:02.608Z,955.85
2022-11-15T05:47:50.390Z,963.72
2022-11-15T05:50:39.878Z,965.28
2022-11-15T05:53:26.653Z,957.00
2022-11-15T05:56:13.392Z,956.05
2022-11-15T05:58:59.906Z,956.22
2022-11-15T06:01:46.156Z,957.33
2022-11-15T06:04:31.737Z,959.97
2022-11-15T06:07:17.461Z,956.38
2022-11-15T06:10:02.851Z,945.22
2022-11-15T06:12:48.318Z,950.00
2022-11-15T06:15:37.332Z,957.53
2022-11-15T06:18:22.763Z,950.45
2022-11-15T06:21:08.742Z,956.60
2022-11-15T06:23:54.357Z,958.15
2022-11-15T06:26:39.652Z,955.08
2022-11-15T06:29:25.218Z,952.10
2022-11-15T06:32:10.872Z,953.03
2022-11-15T06:34:56.462Z,952.00
2022-11-15T06:37:42.541Z,951.07
2022-11-15T06:40:28.219Z,951.80
2022-11-15T06:43:14.060Z,953.83
2022-11-15T06:46:04.055Z,957.08
2022-11-15T06:48:52.061Z,955.38
2022-11-15T06:51:37.668Z,955.43
2022-11-15T06:54:25.244Z,958.35
2022-11-15T06:57:10.394Z,953.72
2022-11-15T06:59:56.419Z,956.27
2022-11-15T07:02:41.730Z,953.55
2022-11-15T07:05:27.718Z,956.78
2022-11-15T07:08:13.330Z,950.50
2022-11-15T07:11:01.335Z,952.35
2022-11-15T07:13:46.606Z,954.10
2022-11-15T07:16:32.314Z,950.55
2022-11-15T07:19:17.794Z,951.30
2022-11-15T07:22:03.618Z,957.33
2022-11-15T07:24:49.029Z,953.28
2022-11-15T07:27:34.984Z,951.33
2022-11-15T07:30:20.641Z,950.95
2022-11-15T07:33:06.462Z,951.72
2022-11-15T07:35:51.913Z,952.05
2022-11-15T07:38:42.534Z,954.25
2022-11-15T07:41:28.510Z,949.35
2022-11-15T07:44:13.993Z,951.13
2022-11-15T07:46:59.371Z,953.65
2022-11-15T07:49:45.078Z,954.30
2022-11-15T07:52:30.314Z,952.95
2022-11-15T07:55:15.879Z,951.40
2022-11-15T07:58:03.306Z,952.38
2022-11-15T08:00:48.670Z,958.28
2022-11-15T08:03:34.813Z,954.33
2022-11-15T08:06:20.439Z,960.85
2022-11-15T08:09:05.784Z,962.35
2022-11-15T08:11:50.978Z,955.38
2022-11-15T08:14:37.674Z,953.35
2022-11-15T08:17:24.159Z,954.60
2022-11-15T08:20:10.046Z,953.40
2022-11-15T08:23:00.762Z,956.88
2022-11-15T08:25:45.926Z,964.55
2022-11-15T08:28:32.634Z,959.38
2022-11-15T08:31:19.492Z,959.55
2022-11-15T08:34:06.882Z,966.72
2022-11-15T08:36:52.187Z,963.90
2022-11-15T08:39:38.775Z,957.85
2022-11-15T08:42:24.292Z,963.97
2022-11-15T08:45:10.330Z,963.83
2022-11-15T08:47:56.352Z,968.10
2022-11-15T08:50:44.555Z,967.83
2022-11-15T08:53:29.904Z,971.73
2022-11-15T08:56:16.353Z,970.50
2022-11-15T08:59:02.839Z,971.45
2022-11-15T09:01:49.621Z,965.42
2022-11-15T09:04:34.674Z,969.13
2022-11-15T09:07:21.250Z,960.65
2022-11-15T09:10:07.183Z,963.38
2022-11-15T09:12:52.514Z,963.28
2022-11-15T09:15:38.050Z,964.92
2022-11-15T09:18:24.406Z,961.83
2022-11-15T09:21:10.716Z,961.90
2022-11-15T09:23:56.414Z,963.17
2022-11-15T09:26:42.673Z,964.50
2022-11-15T09:29:28.224Z,960.50
2022-11-15T09:32:13.880Z,959.30
2022-11-15T09:34:59.246Z,959.45
2022-11-15T09:37:44.727Z,958.58
2022-11-15T09:40:32.314Z,963.72
2022-11-15T09:43:42.243Z,968.65
2022-11-15T09:46:49.050Z,963.97
2022-11-15T09:49:34.614Z,965.63
2022-11-15T09:52:17.728Z,965.58
2022-11-15T09:54:54.717Z,961.80
2022-11-15T09:57:45.463Z,963.43
2022-11-15T10:03:29.889Z,964.15
2022-11-15T10:06:00.933Z,962.80
2022-11-15T10:08:51.233Z,965.28
2022-11-15T10:11:40.935Z,964.13
2022-11-15T10:14:19.467Z,962.90
2022-11-15T10:16:49.210Z,961.15
2022-11-15T10:19:44.795Z,963.50
2022-11-15T10:22:29.548Z,966.40
2022-11-15T10:25:14.566Z,963.15
2022-11-15T10:27:43.461Z,960.43
2022-11-15T10:30:17.124Z,964.30
2022-11-15T10:32:46.999Z,959.90
2022-11-15T10:35:26.341Z,961.40
2022-11-15T10:37:57.542Z,965.75
2022-11-15T10:40:25.114Z,963.55
2022-11-15T10:43:16.483Z,959.88
2022-11-15T10:45:44.243Z,961.78
2022-11-15T10:48:13.727Z,961.90
2022-11-15T10:50:43.524Z,965.75
2022-11-15T10:53:34.318Z,957.10
2022-11-15T10:56:14.572Z,958.33
2022-11-15T10:58:44.904Z,963.42
2022-11-15T11:01:20.892Z,959.57
2022-11-15T11:04:03.920Z,963.07
2022-11-15T11:06:31.446Z,971.55
2022-11-15T11:09:04.505Z,967.53
2022-11-15T11:11:49.675Z,972.00
2022-11-15T11:14:22.939Z,973.28
2022-11-15T11:16:55.057Z,964.85
2022-11-15T11:19:32.587Z,966.60
2022-11-15T11:22:26.906Z,961.22
2022-11-15T11:25:22.222Z,960.83
2022-11-15T11:27:56.861Z,961.15
2022-11-15T11:30:57.491Z,963.85
2022-11-15T11:33:38.884Z,962.47
2022-11-15T11:36:12.604Z,960.45
2022-11-15T11:39:10.585Z,969.97
2022-11-15T11:41:58.568Z,963.33
2022-11-15T11:44:38.689Z,961.28
2022-11-15T11:47:21.455Z,963.20
2022-11-15T11:49:54.817Z,963.25
2022-11-15T11:52:39.968Z,960.13
2022-11-15T11:55:25.282Z,959.08
2022-11-15T11:58:23.066Z,958.38
2022-11-15T12:01:13.487Z,956.72
2022-11-15T12:03:51.018Z,958.17
2022-11-15T12:06:50.102Z,955.70
2022-11-15T12:09:34.932Z,956.08
2022-11-15T12:12:45.307Z,955.07
2022-11-15T12:15:21.025Z,963.30
2022-11-15T12:17:48.313Z,962.15
2022-11-15T12:20:24.168Z,959.43
2022-11-15T12:23:08.854Z,962.60
2022-11-15T12:25:58.922Z,963.90
2022-11-15T12:28:28.547Z,961.60
2022-11-15T12:31:02.572Z,960.50
2022-11-15T12:33:43.109Z,960.60
2022-11-15T12:36:34.946Z,955.78
2022-11-15T12:39:05.752Z,957.20
2022-11-15T12:42:05.234Z,956.95
2022-11-15T12:44:32.756Z,956.80
2022-11-15T12:46:59.499Z,962.38
2022-11-15T12:49:29.233Z,953.53
2022-11-15T12:52:06.939Z,953.92
2022-11-15T12:54:42.522Z,951.65
2022-11-15T12:57:09.309Z,953.70
2022-11-15T12:59:56.397Z,955.45
2022-11-15T13:02:38.414Z,959.35
2022-11-15T13:05:20.401Z,959.15
2022-11-15T13:07:50.993Z,956.90
2022-11-15T13:10:30.882Z,956.17
2022-11-15T13:13:08.394Z,956.58
2022-11-15T13:15:42.858Z,957.63
2022-11-15T13:18:34.579Z,950.50
2022-11-15T13:21:22.998Z,957.00
2022-11-15T13:23:54.707Z,961.92
2022-11-15T13:26:23.351Z,953.10
2022-11-15T13:28:54.242Z,955.60
2022-11-15T13:31:42.737Z,956.17
2022-11-15T13:34:51.152Z,955.07
2022-11-15T13:37:21.539Z,953.67
2022-11-15T13:39:49.639Z,955.35
2022-11-15T13:42:21.037Z,955.55
2022-11-15T13:45:05.211Z,955.07
2022-11-15T13:47:33.160Z,953.90
2022-11-15T13:50:01.755Z,953.08
2022-11-15T13:52:32.684Z,952.67
2022-11-15T13:55:10.000Z,954.83
2022-11-15T13:57:58.538Z,954.20
2022-11-15T14:00:45.673Z,957.83
2022-11-15T14:03:28.589Z,954.07
2022-11-15T14:06:13.255Z,957.22
2022-11-15T14:09:00.237Z,958.90
2022-11-15T14:11:27.667Z,957.17
2022-11-15T14:14:14.898Z,963.05
2022-11-15T14:16:47.455Z,960.25
2022-11-15T14:19:35.805Z,958.20
2022-11-15T14:22:12.554Z,961.95
2022-11-15T14:24:39.478Z,963.10
2022-11-15T14:27:26.134Z,962.58
2022-11-15T14:29:53.381Z,963.95
2022-11-15T14:32:22.950Z,958.38
2022-11-15T14:34:55.082Z,959.75
2022-11-15T14:37:35.471Z,955.30
2022-11-15T14:40:06.559Z,956.25
2022-11-15T14:42:33.585Z,960.28
2022-11-15T14:45:01.366Z,956.95
2022-11-15T14:47:28.223Z,956.97
2022-11-15T14:49:55.058Z,953.20
2022-11-15T14:52:32.179Z,959.75
2022-11-15T14:55:00.568Z,956.53
2022-11-15T14:57:28.349Z,960.33
2022-11-15T14:59:55.266Z,961.60
2022-11-15T15:02:27.704Z,959.58
2022-11-15T15:04:56.023Z,960.65
2022-11-15T15:07:23.578Z,954.72
2022-11-15T15:09:50.517Z,955.13
2022-11-15T15:12:19.950Z,957.70
2022-11-15T15:14:48.244Z,959.40
2022-11-15T15:17:15.857Z,956.17
2022-11-15T15:19:43.004Z,954.90
2022-11-15T15:22:16.488Z,954.42
2022-11-15T15:24:47.320Z,956.97
2022-11-15T15:27:15.467Z,954.43
2022-11-15T15:29:42.172Z,954.25
2022-11-15T15:32:11.813Z,960.25
2022-11-15T15:34:38.594Z,952.50
2022-11-15T15:37:15.558Z,959.07
2022-11-15T15:39:42.326Z,956.90
2022-11-15T15:42:09.090Z,961.67
2022-11-15T15:44:35.919Z,958.50
2022-11-15T15:47:02.727Z,961.08
2022-11-15T15:49:29.474Z,953.08
2022-11-15T15:51:56.310Z,958.25
2022-11-15T15:54:24.007Z,956.15
2022-11-15T15:56:55.933Z,958.80
2022-11-15T15:59:24.900Z,958.28
2022-11-15T16:01:51.641Z,959.30
2022-11-15T16:04:18.460Z,957.75
2022-11-15T16:06:45.662Z,956.30
2022-11-15T16:09:16.642Z,957.88
2022-11-15T16:11:46.831Z,966.97
2022-11-15T16:14:13.816Z,975.00
2022-11-15T16:16:40.748Z,957.92
2022-11-15T16:19:07.499Z,953.13
2022-11-15T16:21:34.364Z,959.47
2022-11-15T16:24:01.045Z,971.28
2022-11-15T16:26:30.629Z,972.70
2022-11-15T16:28:58.812Z,968.42
2022-11-15T16:31:25.587Z,963.50
2022-11-15T16:33:52.314Z,963.10
2022-11-15T16:36:27.122Z,962.10
2022-11-15T16:38:56.872Z,961.75
2022-11-15T16:41:23.629Z,961.83
2022-11-15T16:43:50.447Z,961.45
2022-11-15T16:46:24.955Z,958.20
2022-11-15T16:48:53.912Z,961.28
2022-11-15T16:51:21.157Z,961.28
2022-11-15T16:53:49.140Z,957.47
2022-11-15T16:56:30.375Z,962.05
2022-11-15T16:58:59.026Z,957.33
2022-11-15T17:01:28.298Z,954.53
2022-11-15T17:03:55.862Z,951.72
2022-11-15T17:06:24.121Z,958.17
2022-11-15T17:08:50.960Z,958.20
2022-11-15T17:11:20.947Z,957.65
2022-11-15T17:13:49.371Z,958.95
2022-11-15T17:16:17.609Z,953.55
2022-11-15T17:18:47.589Z,954.33
2022-11-15T17:21:19.258Z,955.58
2022-11-15T17:23:46.579Z,956.10
2022-11-15T17:26:29.469Z,954.45
2022-11-15T17:29:01.436Z,953.40
2022-11-15T17:31:30.724Z,955.30
2022-11-15T17:33:57.531Z,950.75
2022-11-15T17:36:24.353Z,953.15
2022-11-15T17:38:58.097Z,958.40
2022-11-15T17:41:26.386Z,958.53
2022-11-15T17:43:53.301Z,956.25
2022-11-15T17:46:21.136Z,958.25
2022-11-15T17:48:48.806Z,954.67
2022-11-15T17:51:17.458Z,953.95
2022-11-15T17:53:49.169Z,956.45
2022-11-15T17:56:18.592Z,954.47
2022-11-15T17:58:56.601Z,960.47
2022-11-15T18:01:26.951Z,957.58
2022-11-15T18:03:54.607Z,957.78
2022-11-15T18:06:23.750Z,956.30
2022-11-15T18:08:52.076Z,959.20
2022-11-15T18:11:21.716Z,954.92
2022-11-15T18:13:52.500Z,956.10
2022-11-15T18:16:22.429Z,956.42
2022-11-15T18:18:49.410Z,954.08
2022-11-15T18:21:24.553Z,951.97
2022-11-15T18:23:59.658Z,958.15
2022-11-15T18:26:29.069Z,956.47
2022-11-15T18:29:01.934Z,957.58
2022-11-15T18:31:30.994Z,954.97
2022-11-15T18:34:00.036Z,965.33
2022-11-15T18:36:29.579Z,965.92
2022-11-15T18:38:58.296Z,962.78
2022-11-15T18:41:28.740Z,954.00
2022-11-15T18:43:59.735Z,959.53
2022-11-15T18:46:29.198Z,961.25
2022-11-15T18:48:58.111Z,959.78
2022-11-15T18:51:26.461Z,958.10
2022-11-15T18:53:55.095Z,958.13
2022-11-15T18:56:23.572Z,963.38
2022-11-15T18:58:52.177Z,967.55
2022-11-15T19:01:20.410Z,956.70
2022-11-15T19:03:49.543Z,966.83
2022-11-15T19:06:21.969Z,959.70
2022-11-15T19:08:50.165Z,957.50
2022-11-15T19:11:21.576Z,959.20
2022-11-15T19:13:52.425Z,962.22
2022-11-15T19:16:19.254Z,961.05
2022-11-15T19:18:45.965Z,963.92
2022-11-15T19:21:15.991Z,959.92
2022-11-15T19:23:43.380Z,964.03
2022-11-15T19:26:15.374Z,963.77
2022-11-15T19:28:43.953Z,961.35
2022-11-15T19:31:15.699Z,956.47
2022-11-15T19:33:44.033Z,960.20
2022-11-15T19:36:15.611Z,959.42
2022-11-15T19:38:42.595Z,961.35
2022-11-15T19:41:18.013Z,959.53
2022-11-15T19:43:47.914Z,956.47
2022-11-15T19:46:15.402Z,959.72
2022-11-15T19:48:42.412Z,962.50
2022-11-15T19:51:30.191Z,959.08
2022-11-15T19:54:01.234Z,970.63
2022-11-15T19:56:28.030Z,962.30
2022-11-15T19:58:56.228Z,961.95
2022-11-15T20:01:26.035Z,954.25
2022-11-15T20:03:55.326Z,956.42
2022-11-15T20:06:24.426Z,952.15
2022-11-15T20:08:51.388Z,954.13
2022-11-15T20:11:19.078Z,953.53
2022-11-15T20:13:45.922Z,959.10
2022-11-15T20:16:17.089Z,956.92
2022-11-15T20:18:44.131Z,951.13
2022-11-15T20:21:11.274Z,956.88
2022-11-15T20:23:38.938Z,953.60
2022-11-15T20:26:07.869Z,957.92
2022-11-15T20:28:37.985Z,954.33
2022-11-15T20:31:05.849Z,956.03
2022-11-15T20:33:32.750Z,954.25
2022-11-15T20:36:07.230Z,954.10
2022-11-15T20:38:34.719Z,951.90
2022-11-15T20:41:01.938Z,957.33
2022-11-15T20:43:28.955Z,959.23
2022-11-15T20:45:56.014Z,957.95
2022-11-15T20:48:22.935Z,953.28
2022-11-15T20:50:49.681Z,956.60
2022-11-15T20:53:19.027Z,956.90
2022-11-15T20:55:48.931Z,955.47
2022-11-15T20:58:16.684Z,953.63
2022-11-15T21:00:45.339Z,954.53
2022-11-15T21:03:13.593Z,953.95
2022-11-15T21:05:43.194Z,957.35
2022-11-15T21:08:12.910Z,954.42
2022-11-15T21:10:59.069Z,958.63
2022-11-15T21:13:26.649Z,955.92
2022-11-15T21:15:57.582Z,951.38
2022-11-15T21:18:25.843Z,945.40
2022-11-15T21:20:53.655Z,949.47
2022-11-15T21:23:20.905Z,949.63
2022-11-15T21:25:52.179Z,948.50
2022-11-15T21:28:19.226Z,951.00
2022-11-15T21:30:59.682Z,952.50
2022-11-15T21:33:27.637Z,952.67
2022-11-15T21:35:55.825Z,954.57
2022-11-15T21:38:24.041Z,948.13
2022-11-15T21:40:52.058Z,950.42
2022-11-15T21:43:20.926Z,948.95
2022-11-15T21:46:02.326Z,947.77
2022-11-15T21:48:31.767Z,946.25
2022-11-15T21:51:10.949Z,947.22
2022-11-15T21:53:37.682Z,944.75
2022-11-15T21:56:06.744Z,947.70
2022-11-15T21:58:33.858Z,944.55
2022-11-15T22:01:20.019Z,938.55
2022-11-15T22:03:46.871Z,944.30
2022-11-15T22:06:17.680Z,947.42
2022-11-15T22:08:46.029Z,950.80
2022-11-15T22:11:13.362Z,946.42
2022-11-15T22:13:41.476Z,950.60
2022-11-15T22:16:09.094Z,947.25
2022-11-15T22:18:36.778Z,952.97
2022-11-15T22:21:11.894Z,954.03
2022-11-15T22:23:39.266Z,952.25
2022-11-15T22:26:06.990Z,950.30
2022-11-15T22:28:34.539Z,949.33
2022-11-15T22:31:01.818Z,952.97
2022-11-15T22:33:30.742Z,947.75
2022-11-15T22:35:58.010Z,948.85
2022-11-15T22:38:25.965Z,950.78
2022-11-15T22:40:53.153Z,954.58
2022-11-15T22:43:21.864Z,953.47
2022-11-15T22:45:53.538Z,955.40
2022-11-15T22:48:22.771Z,951.63
2022-11-15T22:50:50.751Z,953.53
2022-11-15T22:53:18.349Z,951.58
2022-11-15T22:55:53.606Z,956.20
2022-11-15T22:58:21.631Z,958.50
2022-11-15T23:00:50.213Z,964.22
2022-11-15T23:03:17.874Z,962.97
2022-11-15T23:05:44.730Z,960.80
2022-11-15T23:08:12.250Z,962.08
2022-11-15T23:10:58.933Z,958.25
2022-11-15T23:13:27.885Z,960.80
2022-11-15T23:16:23.879Z,959.13
2022-11-15T23:18:58.820Z,965.33
2022-11-15T23:21:47.142Z,966.78
2022-11-15T23:24:14.905Z,961.40
2022-11-15T23:26:43.247Z,958.53
2022-11-15T23:29:12.316Z,956.30
2022-11-15T23:32:02.165Z,953.30
2022-11-15T23:34:31.038Z,957.17
2022-11-15T23:36:59.037Z,955.65
2022-11-15T23:39:26.194Z,957.43
2022-11-15T23:41:53.006Z,959.10
2022-11-15T23:44:19.791Z,959.25
2022-11-15T23:46:47.757Z,957.97
2022-11-15T23:49:14.683Z,963.22
2022-11-15T23:51:41.495Z,959.83
2022-11-15T23:54:08.570Z,960.73
2022-11-15T23:56:35.465Z,959.58
2022-11-15T23:59:02.329Z,964.70
